Prince Albert Glass Field
CYPA : rendu visible

Aérodrome :











RETROUVEZ-NOUS SUR...

 
LOGIN :

S'inscrire | Disclaimer

   EN    FR    IT 

 









Légende :    VFR   VFR Marginal   IFR   IFR Intensif   IFR Très Intensif
Visi : 
Plafond : 
>= 8 km
>= 3000ft
5 à 8 km
1000 à 3000 ft
1500m à 5 km
500 à 1000 ft
800 à 1500m
200 à 500 ft
< 800m
< 200 ft
Symboles :   Orages  Brouillard  Fortes neiges  Fortes précipitations  Vent > 20 kt






- Altitude de l'aérodrome : 1405 ft
- Code IATA : YPA


CYPA - Prince Albert Glass Field

DERNIER METAR :
  • 250400Z 18002KT 15SM FEW080 12/04 A2994 RMK AC1 LAST STFD OBS/NEXT 251200Z SLP149

METARs EXPIRÉS :
  • 250300Z 22004KT 15SM FEW080 16/04 A2993 RMK AC1 AC TR SLP145 DENSITY ALT 1900FT
  • 250200Z 27005KT 15SM FEW080 19/03 A2992 RMK AC1 AC TR SLP143 DENSITY ALT 2200FT

Prévision TAF périmée.
FIR CZWG / Amérique du Nord



MET'MAP, la Météo Aéronautique d'un coup d'oeil ! - Copyright ORBIFLY Décembre 2007 - Disclaimer

ORBIFLY MET'MAP TEAM :

Programmation & Développement : Alexandra Zaïnal
Sur une idée originale de : Baudouin d'Aumeries
Assistance à la programmation : Marc-Olivier Méhu
Soutien technique & logistique : Manuel Goepfert

Contact : metmap@orbifly.com




SOURCES & CREDITS :

   NOAA       Earth
Advisory